Terminal Aerodrome Forecast
Issued by NWS Caribou, ME

Home | Current Version | Previous Version | Text Only | Print | Product List | Glossary On
Versions: 1 2 3 4 5 6 7 8 9 10 11 12 13 14
000
FTUS41 KCAR 280539
TAFCAR
TAF
KCAR 280539Z 2806/2906 17004KT P6SM SCT150
     FM280900 VRB03KT P6SM BKN150
     FM290000 05004KT P6SM VCSH BKN050=

USA.gov is the U.S. government's official web portal to all federal, state and local government web resources and services.